createdAt,value
2022-10-16T00:01:05.637Z,25
2022-10-16T00:16:05.747Z,24
2022-10-16T00:31:04.850Z,27
2022-10-16T00:46:05.115Z,28
2022-10-16T01:01:05.429Z,29
2022-10-16T01:16:05.703Z,29
2022-10-16T01:31:05.672Z,48
2022-10-16T01:46:05.485Z,41
2022-10-16T02:01:05.640Z,39
2022-10-16T02:16:05.603Z,63
2022-10-16T02:31:05.527Z,41
2022-10-16T02:46:05.762Z,36
2022-10-16T03:01:05.948Z,36
2022-10-16T03:16:04.889Z,32
2022-10-16T03:31:05.042Z,27
2022-10-16T03:46:05.147Z,25
2022-10-16T04:01:05.512Z,29
2022-10-16T04:16:05.470Z,27
2022-10-16T04:31:05.876Z,29
2022-10-16T04:46:05.471Z,35
2022-10-16T05:01:05.557Z,33
2022-10-16T05:16:05.332Z,32
2022-10-16T05:31:05.998Z,29
2022-10-16T05:46:05.228Z,35
2022-10-16T06:01:05.021Z,33
2022-10-16T06:16:05.051Z,40
2022-10-16T06:31:08.722Z,26
2022-10-16T06:46:05.856Z,24
2022-10-16T07:01:06.098Z,21
2022-10-16T07:16:05.103Z,22
2022-10-16T07:31:05.744Z,22
2022-10-16T07:46:06.914Z,17
2022-10-16T08:01:05.344Z,15
2022-10-16T08:16:05.718Z,17
2022-10-16T08:31:04.903Z,16
2022-10-16T08:46:04.706Z,19
2022-10-16T09:01:05.947Z,16
2022-10-16T09:16:05.403Z,15
2022-10-16T09:31:04.907Z,16
2022-10-16T09:46:05.632Z,15
2022-10-16T10:01:05.784Z,12
2022-10-16T10:16:05.088Z,13
2022-10-16T10:31:05.297Z,13
2022-10-16T10:46:05.527Z,13
2022-10-16T11:01:05.476Z,15
2022-10-16T11:16:05.936Z,17
2022-10-16T11:31:04.890Z,13
2022-10-16T11:46:09.991Z,12
2022-10-16T12:01:05.521Z,12
2022-10-16T12:16:05.161Z,14
2022-10-16T12:31:05.727Z,17
2022-10-16T12:46:05.741Z,15
2022-10-16T13:01:05.588Z,15
2022-10-16T13:16:05.582Z,18
2022-10-16T13:31:05.215Z,20
2022-10-16T13:46:05.522Z,21
2022-10-16T14:01:05.243Z,12
2022-10-16T14:16:05.106Z,14
2022-10-16T14:31:05.581Z,16
2022-10-16T14:46:05.691Z,14
2022-10-16T15:01:04.875Z,14
2022-10-16T15:16:05.426Z,17
2022-10-16T15:31:05.241Z,20
2022-10-16T15:46:05.343Z,21
2022-10-16T16:01:05.721Z,23
2022-10-16T16:16:05.737Z,27
2022-10-16T16:31:05.438Z,36
2022-10-16T16:46:05.578Z,46
2022-10-16T17:01:21.511Z,38
2022-10-16T17:16:05.319Z,29
2022-10-16T17:31:05.352Z,33
2022-10-16T17:46:05.751Z,30
2022-10-16T18:01:05.657Z,36
2022-10-16T18:16:05.651Z,30
2022-10-16T18:31:05.863Z,31
2022-10-16T18:46:04.999Z,36
2022-10-16T19:01:05.401Z,37
2022-10-16T19:16:20.870Z,39
2022-10-16T19:31:05.589Z,34
2022-10-16T19:46:05.249Z,38
2022-10-16T20:01:05.184Z,42
2022-10-16T20:16:05.266Z,37
2022-10-16T20:31:05.771Z,37
2022-10-16T20:46:05.240Z,37
2022-10-16T21:01:05.673Z,32
2022-10-16T21:16:04.845Z,37
2022-10-16T21:31:08.645Z,35
2022-10-16T21:46:04.931Z,36
2022-10-16T22:01:05.637Z,38
2022-10-16T22:16:05.846Z,37
2022-10-16T22:31:05.366Z,34
2022-10-16T22:46:05.210Z,35
2022-10-16T23:01:05.226Z,34
2022-10-16T23:16:05.397Z,32
2022-10-16T23:31:04.889Z,34
2022-10-16T23:46:05.024Z,34
